Clarkton, North Carolina
Current Conditions -  °F | °C
As of 3:15 PM on Wednesday 28 Jan 2015 (Local Time) from KEYF Reporting Station
Clear Clear  
Wind Chill: 42°   Ceiling: Unl
Heat Index: 46°   Visibility: 10mi
Dew Point: 11°   Wind: 6mph
Humidity: 24%   Direction: 360°N
Pressure: 30.22"   Gusts: NA
Location:  34.49°N, 78.66°W
Report Text: KEYF 282015Z AUTO 36005KT 10SM CLR 08/M12 A3022 RMK AO2 T00751118
Loading
Personal Weather Stations






























Interactive Weather Map New forecast layout! Learn more

10-Day Weather Forecast

Advertisements
Track Severe Weather on mobile